createdAt,value
2023-03-20T00:00:19.848Z,2.50
2023-03-20T00:02:46.290Z,2.33
2023-03-20T00:05:18.922Z,2.28
2023-03-20T00:07:45.843Z,2.60
2023-03-20T00:10:12.203Z,2.60
2023-03-20T00:12:39.032Z,2.90
2023-03-20T00:15:06.694Z,2.00
2023-03-20T00:17:33.175Z,2.60
2023-03-20T00:19:59.514Z,2.45
2023-03-20T00:22:25.887Z,1.90
2023-03-20T00:24:52.466Z,1.50
2023-03-20T00:27:18.859Z,1.45
2023-03-20T00:29:45.906Z,1.35
2023-03-20T00:32:13.276Z,1.50
2023-03-20T00:34:39.648Z,2.83
2023-03-20T00:37:05.932Z,1.38
2023-03-20T00:39:32.346Z,3.33
2023-03-20T00:42:10.703Z,3.78
2023-03-20T00:44:41.781Z,6.47
2023-03-20T00:47:11.594Z,8.40
2023-03-20T00:49:38.773Z,8.18
2023-03-20T00:52:05.435Z,8.45
2023-03-20T00:54:32.029Z,7.75
2023-03-20T00:57:18.634Z,4.95
2023-03-20T00:59:51.795Z,4.85
2023-03-20T01:02:18.426Z,5.78
2023-03-20T01:04:44.798Z,4.28
2023-03-20T01:07:13.797Z,3.30
2023-03-20T01:09:40.079Z,3.40
2023-03-20T01:12:07.901Z,5.10
2023-03-20T01:14:34.582Z,4.93
2023-03-20T01:17:01.030Z,8.68
2023-03-20T01:19:27.431Z,6.50
2023-03-20T01:21:53.808Z,5.80
2023-03-20T01:24:20.126Z,4.57
2023-03-20T01:26:46.970Z,4.32
2023-03-20T01:29:20.743Z,4.05
2023-03-20T01:31:47.576Z,3.67
2023-03-20T01:34:16.272Z,7.28
2023-03-20T01:36:46.166Z,5.22
2023-03-20T01:39:12.466Z,8.23
2023-03-20T01:41:39.569Z,9.43
2023-03-20T01:44:17.054Z,10.50
2023-03-20T01:46:43.763Z,13.13
2023-03-20T01:49:18.975Z,11.05
2023-03-20T01:51:45.885Z,8.52
2023-03-20T01:54:17.524Z,7.30
2023-03-20T01:56:46.875Z,7.25
2023-03-20T01:59:39.574Z,9.77
2023-03-20T02:02:06.673Z,8.57
2023-03-20T02:04:36.085Z,8.20
2023-03-20T02:07:03.660Z,6.38
2023-03-20T02:09:30.281Z,6.53
2023-03-20T02:11:57.685Z,6.78
2023-03-20T02:14:24.083Z,10.85
2023-03-20T02:16:50.825Z,10.93
2023-03-20T02:19:21.671Z,10.68
2023-03-20T02:22:06.482Z,8.75
2023-03-20T02:24:32.880Z,9.00
2023-03-20T02:27:02.203Z,8.07
2023-03-20T02:29:31.333Z,9.77
2023-03-20T02:32:00.725Z,7.97
2023-03-20T02:34:46.605Z,8.73
2023-03-20T02:37:31.528Z,5.95
2023-03-20T02:40:04.640Z,6.00
2023-03-20T02:42:44.899Z,6.80
2023-03-20T02:45:33.665Z,7.50
2023-03-20T02:48:18.804Z,6.22
2023-03-20T02:50:48.038Z,7.97
2023-03-20T02:53:29.695Z,8.38
2023-03-20T02:56:07.784Z,5.78
2023-03-20T02:58:50.692Z,6.57
2023-03-20T03:01:43.248Z,5.78
2023-03-20T03:04:18.176Z,5.75
2023-03-20T03:06:46.576Z,6.35
2023-03-20T03:09:21.101Z,6.35
2023-03-20T03:11:55.927Z,5.30
2023-03-20T03:14:42.550Z,7.93
2023-03-20T03:17:09.810Z,5.13
2023-03-20T03:19:37.896Z,3.97
2023-03-20T03:22:05.766Z,3.70
2023-03-20T03:24:40.736Z,10.73
2023-03-20T03:27:19.853Z,6.05
2023-03-20T03:29:49.585Z,8.35
2023-03-20T03:32:20.909Z,5.63
2023-03-20T03:34:47.298Z,6.25
2023-03-20T03:37:20.653Z,5.70
2023-03-20T03:39:53.103Z,8.48
2023-03-20T03:42:26.014Z,9.52
2023-03-20T03:45:00.669Z,7.10
2023-03-20T03:47:34.981Z,7.05
2023-03-20T03:50:09.083Z,4.65
2023-03-20T03:52:36.325Z,3.70
2023-03-20T03:55:10.099Z,1.90
2023-03-20T03:57:45.968Z,2.35
2023-03-20T04:00:13.918Z,2.42
2023-03-20T04:02:42.348Z,3.03
2023-03-20T04:05:09.670Z,2.55
2023-03-20T04:07:36.581Z,2.10
2023-03-20T04:10:03.470Z,2.05
2023-03-20T04:12:32.441Z,2.08
2023-03-20T04:14:59.782Z,2.22
2023-03-20T04:17:27.508Z,2.80
2023-03-20T04:19:53.849Z,3.42
2023-03-20T04:22:20.386Z,4.25
2023-03-20T04:24:47.146Z,5.25
2023-03-20T04:27:13.558Z,5.40
2023-03-20T04:29:40.693Z,4.88
2023-03-20T04:32:07.211Z,7.30
2023-03-20T04:34:33.613Z,7.13
2023-03-20T04:37:01.296Z,5.50
2023-03-20T04:39:27.710Z,5.43
2023-03-20T04:41:54.043Z,3.67
2023-03-20T04:44:20.522Z,2.95
2023-03-20T04:46:46.868Z,2.47
2023-03-20T04:49:13.267Z,2.80
2023-03-20T04:51:39.648Z,2.35
2023-03-20T04:54:05.941Z,1.98
2023-03-20T04:56:32.249Z,1.70
2023-03-20T04:58:58.590Z,1.30
2023-03-20T05:01:25.136Z,0.80
2023-03-20T05:03:52.125Z,1.02
2023-03-20T05:06:18.515Z,0.85
2023-03-20T05:08:44.901Z,1.40
2023-03-20T05:11:11.932Z,1.30
2023-03-20T05:13:38.291Z,1.73
2023-03-20T05:16:04.798Z,2.00
2023-03-20T05:18:31.422Z,1.92
2023-03-20T05:20:57.718Z,1.63
2023-03-20T05:23:24.042Z,2.08
2023-03-20T05:25:50.401Z,1.60
2023-03-20T05:28:16.715Z,1.13
2023-03-20T05:30:43.331Z,1.27
2023-03-20T05:33:09.878Z,0.90
2023-03-20T05:35:36.699Z,1.15
2023-03-20T05:38:03.143Z,1.20
2023-03-20T05:40:29.510Z,1.50
2023-03-20T05:42:55.886Z,1.90
2023-03-20T05:45:22.293Z,1.85
2023-03-20T05:47:49.067Z,1.02
2023-03-20T05:50:15.778Z,1.83
2023-03-20T05:52:42.155Z,1.40
2023-03-20T05:55:08.598Z,1.35
2023-03-20T05:57:34.971Z,1.20
2023-03-20T06:00:01.329Z,1.73
2023-03-20T06:02:27.781Z,1.15
2023-03-20T06:04:54.120Z,2.05
2023-03-20T06:07:20.494Z,2.13
2023-03-20T06:09:46.989Z,2.80
2023-03-20T06:12:13.279Z,2.65
2023-03-20T06:14:39.673Z,1.50
2023-03-20T06:17:06.051Z,1.52
2023-03-20T06:19:32.510Z,1.23
2023-03-20T06:21:58.924Z,1.40
2023-03-20T06:24:25.357Z,1.13
2023-03-20T06:26:51.808Z,0.93
2023-03-20T06:29:18.126Z,0.65
2023-03-20T06:31:44.566Z,0.82
2023-03-20T06:34:10.962Z,0.80
2023-03-20T06:36:38.043Z,0.77
2023-03-20T06:39:04.604Z,1.77
2023-03-20T06:41:34.611Z,2.00
2023-03-20T06:44:01.493Z,1.48
2023-03-20T06:46:27.840Z,1.10
2023-03-20T06:48:54.210Z,0.95
2023-03-20T06:51:20.628Z,0.80
2023-03-20T06:53:47.036Z,0.82
2023-03-20T06:56:13.344Z,1.33
2023-03-20T06:58:39.786Z,1.00
2023-03-20T07:01:09.932Z,1.33
2023-03-20T07:03:36.280Z,1.75
2023-03-20T07:06:03.113Z,1.80
2023-03-20T07:08:29.516Z,1.80
2023-03-20T07:10:55.900Z,1.15
2023-03-20T07:13:22.362Z,1.20
2023-03-20T07:16:03.366Z,2.72
2023-03-20T07:18:30.745Z,3.92
2023-03-20T07:21:02.518Z,4.38
2023-03-20T07:23:29.357Z,5.97
2023-03-20T07:25:55.689Z,6.63
2023-03-20T07:28:22.215Z,6.57
2023-03-20T07:30:48.527Z,8.65
2023-03-20T07:33:15.316Z,9.98
2023-03-20T07:35:41.785Z,10.30
2023-03-20T07:38:08.134Z,9.48
2023-03-20T07:40:34.431Z,9.07
2023-03-20T07:43:01.286Z,7.90
2023-03-20T07:45:27.612Z,7.35
2023-03-20T07:47:53.993Z,6.80
2023-03-20T07:50:20.427Z,6.75
2023-03-20T07:52:47.562Z,6.10
2023-03-20T07:55:15.688Z,4.82
2023-03-20T07:57:43.799Z,7.20
2023-03-20T08:00:10.650Z,5.53
2023-03-20T08:02:37.167Z,3.80
2023-03-20T08:05:03.677Z,5.75
2023-03-20T08:07:30.388Z,3.53
2023-03-20T08:09:56.806Z,2.90
2023-03-20T08:12:23.121Z,4.97
2023-03-20T08:14:49.419Z,6.20
2023-03-20T08:17:18.709Z,5.25
2023-03-20T08:19:46.647Z,4.10
2023-03-20T08:22:13.329Z,4.15
2023-03-20T08:24:40.318Z,3.03
2023-03-20T08:27:07.795Z,4.78
2023-03-20T08:29:34.241Z,6.47
2023-03-20T08:32:00.839Z,7.75
2023-03-20T08:34:27.220Z,5.05
2023-03-20T08:36:53.652Z,4.28
2023-03-20T08:39:20.106Z,6.95
2023-03-20T08:41:46.557Z,5.68
2023-03-20T08:44:13.163Z,4.88
2023-03-20T08:46:39.997Z,7.00
2023-03-20T08:49:07.299Z,5.00
2023-03-20T08:51:33.735Z,5.00
2023-03-20T08:54:00.198Z,6.07
2023-03-20T08:56:26.738Z,9.02
2023-03-20T08:58:56.187Z,9.98
2023-03-20T09:01:22.703Z,8.43
2023-03-20T09:03:49.329Z,8.02
2023-03-20T09:06:15.713Z,6.60
2023-03-20T09:08:42.245Z,5.53
2023-03-20T09:11:08.732Z,8.63
2023-03-20T09:13:35.377Z,7.72
2023-03-20T09:16:01.876Z,6.53
2023-03-20T09:18:28.380Z,8.88
2023-03-20T09:20:56.666Z,6.93
2023-03-20T09:23:23.141Z,6.20
2023-03-20T09:25:49.478Z,7.85
2023-03-20T09:28:15.807Z,7.40
2023-03-20T09:30:43.653Z,6.60
2023-03-20T09:33:10.309Z,6.75
2023-03-20T09:35:37.486Z,8.00
2023-03-20T09:38:03.855Z,8.55
2023-03-20T09:40:34.001Z,7.47
2023-03-20T09:43:00.421Z,6.90
2023-03-20T09:45:34.907Z,7.70
2023-03-20T09:48:07.417Z,6.47
2023-03-20T09:50:55.887Z,6.05
2023-03-20T09:53:40.820Z,6.22
2023-03-20T09:56:11.182Z,5.30
2023-03-20T09:58:39.995Z,5.60
2023-03-20T10:01:06.998Z,3.97
2023-03-20T10:03:43.206Z,3.60
2023-03-20T10:06:13.756Z,4.80
2023-03-20T10:08:40.271Z,3.75
2023-03-20T10:11:16.197Z,5.22
2023-03-20T10:14:00.721Z,4.00
2023-03-20T10:16:32.311Z,3.97
2023-03-20T10:19:04.758Z,3.80
2023-03-20T10:21:37.327Z,4.10
2023-03-20T10:24:05.314Z,4.78
2023-03-20T10:26:34.242Z,4.60
2023-03-20T10:29:02.182Z,5.32
2023-03-20T10:31:49.775Z,4.93
2023-03-20T10:34:39.396Z,5.10
2023-03-20T10:37:21.759Z,4.72
2023-03-20T10:39:50.934Z,4.97
2023-03-20T10:42:19.881Z,4.68
2023-03-20T10:44:50.207Z,4.38
2023-03-20T10:47:19.310Z,4.55
2023-03-20T10:50:14.776Z,3.95
2023-03-20T10:52:41.785Z,3.67
2023-03-20T10:55:11.547Z,3.40
2023-03-20T10:57:42.013Z,2.40
2023-03-20T11:00:13.948Z,3.30
2023-03-20T11:05:29.631Z,3.17
2023-03-20T11:08:09.363Z,3.25
2023-03-20T11:10:37.448Z,2.70
2023-03-20T11:13:15.383Z,2.45
2023-03-20T11:15:41.783Z,2.10
2023-03-20T11:18:13.978Z,2.63
2023-03-20T11:21:00.904Z,3.00
2023-03-20T11:23:30.303Z,2.25
2023-03-20T11:25:58.308Z,2.50
2023-03-20T11:28:24.702Z,2.03
2023-03-20T11:31:04.103Z,1.90
2023-03-20T11:33:31.997Z,1.60
2023-03-20T11:35:59.121Z,2.75
2023-03-20T11:38:25.838Z,2.70
2023-03-20T11:40:53.584Z,2.00
2023-03-20T11:43:21.704Z,2.78
2023-03-20T11:45:50.221Z,1.85
2023-03-20T11:48:20.812Z,2.28
2023-03-20T11:50:49.180Z,1.80
2023-03-20T11:53:28.543Z,1.95
2023-03-20T11:56:18.693Z,2.17
2023-03-20T11:59:06.905Z,2.40
2023-03-20T12:01:44.745Z,1.80
2023-03-20T12:04:16.815Z,2.10
2023-03-20T12:06:52.574Z,1.50
2023-03-20T12:09:28.076Z,2.67
2023-03-20T12:12:00.064Z,1.98
2023-03-20T12:14:26.634Z,2.40
2023-03-20T12:16:57.476Z,2.33
2023-03-20T12:19:26.167Z,2.40
2023-03-20T12:21:59.483Z,2.20
2023-03-20T12:24:42.253Z,2.47
2023-03-20T12:27:20.817Z,1.90
2023-03-20T12:29:52.722Z,1.85
2023-03-20T12:32:29.136Z,2.47
2023-03-20T12:35:03.405Z,2.30
2023-03-20T12:37:29.731Z,1.88
2023-03-20T12:39:59.346Z,1.95
2023-03-20T12:42:45.847Z,2.10
2023-03-20T12:45:18.863Z,1.30
2023-03-20T12:47:47.974Z,2.03
2023-03-20T12:50:30.673Z,2.00
2023-03-20T12:53:17.222Z,1.90
2023-03-20T12:55:46.372Z,2.22
2023-03-20T12:58:31.616Z,2.13
2023-03-20T13:00:57.918Z,1.83
2023-03-20T13:03:39.502Z,1.95
2023-03-20T13:06:08.984Z,1.80
2023-03-20T13:08:54.074Z,2.05
2023-03-20T13:11:20.583Z,2.13
2023-03-20T13:13:51.606Z,1.73
2023-03-20T13:16:20.911Z,2.00
2023-03-20T13:18:47.304Z,2.40
2023-03-20T13:21:16.380Z,2.45
2023-03-20T13:23:42.685Z,2.10
2023-03-20T13:26:17.129Z,1.85
2023-03-20T13:28:58.906Z,1.58
2023-03-20T13:31:41.832Z,2.13
2023-03-20T13:34:10.938Z,1.60
2023-03-20T13:36:48.848Z,2.08
2023-03-20T13:39:20.588Z,1.25
2023-03-20T13:41:48.226Z,1.48
2023-03-20T13:44:17.034Z,2.05
2023-03-20T13:46:45.723Z,1.67
2023-03-20T13:49:19.212Z,1.83
2023-03-20T13:51:48.524Z,1.50
2023-03-20T13:54:24.035Z,1.90
2023-03-20T13:56:53.191Z,1.80
2023-03-20T13:59:27.404Z,1.70
2023-03-20T14:02:00.955Z,1.80
2023-03-20T14:04:27.701Z,1.80
2023-03-20T14:06:55.312Z,1.60
2023-03-20T14:09:29.858Z,1.80
2023-03-20T14:12:01.262Z,1.55
2023-03-20T14:14:31.889Z,1.52
2023-03-20T14:17:01.279Z,1.50
2023-03-20T14:19:28.915Z,1.27
2023-03-20T14:21:56.019Z,1.25
2023-03-20T14:24:23.745Z,1.90
2023-03-20T14:26:52.761Z,1.08
2023-03-20T14:29:20.680Z,1.10
2023-03-20T14:31:52.120Z,1.40
2023-03-20T14:34:20.876Z,2.10
2023-03-20T14:36:47.331Z,2.00
2023-03-20T14:39:28.154Z,1.40
2023-03-20T14:41:57.318Z,1.92
2023-03-20T14:44:44.629Z,1.67
2023-03-20T14:47:17.334Z,2.00
2023-03-20T14:49:47.964Z,2.10
2023-03-20T14:52:23.184Z,1.70
2023-03-20T14:54:54.024Z,1.70
2023-03-20T14:57:35.761Z,1.70
2023-03-20T15:00:16.029Z,1.45
2023-03-20T15:02:46.294Z,1.35
2023-03-20T15:05:26.278Z,1.80
2023-03-20T15:07:52.864Z,1.40
2023-03-20T15:10:19.821Z,1.50
2023-03-20T15:12:46.612Z,1.50
2023-03-20T15:15:39.167Z,1.95
2023-03-20T15:18:13.404Z,1.35
2023-03-20T15:20:40.055Z,1.13
2023-03-20T15:23:07.337Z,2.05
2023-03-20T15:25:36.759Z,2.67
2023-03-20T15:28:12.755Z,1.92
2023-03-20T15:30:39.923Z,1.63
2023-03-20T15:33:06.944Z,1.67
2023-03-20T15:35:33.835Z,1.60
2023-03-20T15:38:04.689Z,2.25
2023-03-20T15:40:49.284Z,1.50
2023-03-20T15:43:21.765Z,2.15
2023-03-20T15:45:48.529Z,1.70
2023-03-20T15:48:16.217Z,1.40
2023-03-20T15:50:45.703Z,2.15
2023-03-20T15:53:24.824Z,1.70
2023-03-20T15:55:54.935Z,2.65
2023-03-20T15:58:24.866Z,2.00
2023-03-20T16:00:51.219Z,1.77
2023-03-20T16:03:19.762Z,1.90
2023-03-20T16:05:48.066Z,1.60
2023-03-20T16:08:25.804Z,1.30
2023-03-20T16:10:56.982Z,1.50
2023-03-20T16:13:24.574Z,2.30
2023-03-20T16:15:51.673Z,1.58
2023-03-20T16:18:18.863Z,1.40
2023-03-20T16:20:56.784Z,2.40
2023-03-20T16:23:34.779Z,2.47
2023-03-20T16:26:03.127Z,2.35
2023-03-20T16:28:29.575Z,1.63
2023-03-20T16:31:04.549Z,2.08
2023-03-20T16:33:31.802Z,1.60
2023-03-20T16:36:00.138Z,1.50
2023-03-20T16:38:31.401Z,1.63
2023-03-20T16:41:14.105Z,1.13
2023-03-20T16:43:40.561Z,0.90
2023-03-20T16:46:07.346Z,1.27
2023-03-20T16:48:35.271Z,1.27
2023-03-20T16:51:16.826Z,1.50
2023-03-20T16:53:47.499Z,1.95
2023-03-20T16:56:16.223Z,1.60
2023-03-20T16:58:45.694Z,1.90
2023-03-20T17:01:16.251Z,1.80
2023-03-20T17:03:45.529Z,1.35
2023-03-20T17:06:29.349Z,1.30
2023-03-20T17:09:04.638Z,1.23
2023-03-20T17:11:35.621Z,1.20
2023-03-20T17:14:04.263Z,1.75
2023-03-20T17:16:31.191Z,1.27
2023-03-20T17:19:01.997Z,1.60
2023-03-20T17:21:28.730Z,1.08
2023-03-20T17:23:55.376Z,1.30
2023-03-20T17:26:21.796Z,2.13
2023-03-20T17:28:48.108Z,1.60
2023-03-20T17:31:15.331Z,1.38
2023-03-20T17:33:41.968Z,0.98
2023-03-20T17:36:16.644Z,0.93
2023-03-20T17:38:42.985Z,1.70
2023-03-20T17:41:14.079Z,1.80
2023-03-20T17:43:40.651Z,1.40
2023-03-20T17:46:07.148Z,1.85
2023-03-20T17:48:33.567Z,1.55
2023-03-20T17:50:59.931Z,1.88
2023-03-20T17:53:28.956Z,2.60
2023-03-20T17:55:55.599Z,2.30
2023-03-20T17:58:22.921Z,2.20
2023-03-20T18:00:50.262Z,2.10
2023-03-20T18:03:18.438Z,2.05
2023-03-20T18:05:49.080Z,2.47
2023-03-20T18:08:16.842Z,1.85
2023-03-20T18:10:44.017Z,1.70
2023-03-20T18:13:10.489Z,1.85
2023-03-20T18:15:38.722Z,1.60
2023-03-20T18:18:05.870Z,1.52
2023-03-20T18:20:33.238Z,2.35
2023-03-20T18:22:59.871Z,2.40
2023-03-20T18:25:26.313Z,2.53
2023-03-20T18:27:53.216Z,1.48
2023-03-20T18:30:21.221Z,1.83
2023-03-20T18:32:47.751Z,2.42
2023-03-20T18:35:14.290Z,2.17
2023-03-20T18:37:40.833Z,1.40
2023-03-20T18:40:14.940Z,1.80
2023-03-20T18:42:41.355Z,1.30
2023-03-20T18:45:07.905Z,1.67
2023-03-20T18:47:34.396Z,1.92
2023-03-20T18:50:00.761Z,2.78
2023-03-20T18:52:27.155Z,1.63
2023-03-20T18:54:53.525Z,1.50
2023-03-20T18:57:19.914Z,1.50
2023-03-20T18:59:46.317Z,1.35
2023-03-20T19:02:12.712Z,1.20
2023-03-20T19:04:39.028Z,1.10
2023-03-20T19:07:05.446Z,1.35
2023-03-20T19:09:31.749Z,1.33
2023-03-20T19:11:58.151Z,2.00
2023-03-20T19:14:25.806Z,2.03
2023-03-20T19:16:52.292Z,1.85
2023-03-20T19:19:18.667Z,1.60
2023-03-20T19:21:45.039Z,2.25
2023-03-20T19:24:11.840Z,1.83
2023-03-20T19:26:38.304Z,1.75
2023-03-20T19:29:10.639Z,1.80
2023-03-20T19:31:37.521Z,1.77
2023-03-20T19:34:03.964Z,2.00
2023-03-20T19:36:34.726Z,1.92
2023-03-20T19:39:02.175Z,2.03
2023-03-20T19:41:29.151Z,1.63
2023-03-20T19:43:56.077Z,1.35
2023-03-20T19:46:38.717Z,1.10
2023-03-20T19:49:06.962Z,0.90
2023-03-20T19:51:33.653Z,1.08
2023-03-20T19:54:00.048Z,1.17
2023-03-20T19:56:27.085Z,1.10
2023-03-20T19:58:53.569Z,1.02
2023-03-20T20:01:21.391Z,1.38
2023-03-20T20:03:49.585Z,1.10
2023-03-20T20:06:16.088Z,1.80
2023-03-20T20:08:48.263Z,1.83
2023-03-20T20:11:15.801Z,1.30
2023-03-20T20:14:03.634Z,1.23
2023-03-20T20:16:29.168Z,1.50
2023-03-20T20:18:55.615Z,1.75
2023-03-20T20:22:13.260Z,1.65
2023-03-20T20:24:08.354Z,1.70
2023-03-20T20:26:38.981Z,1.83
2023-03-20T20:31:33.139Z,1.85
2023-03-20T20:34:39.974Z,1.55
2023-03-20T20:39:32.543Z,1.55
2023-03-20T20:41:59.018Z,2.55
2023-03-20T20:44:25.318Z,1.13
2023-03-20T20:46:51.680Z,1.50
2023-03-20T20:49:20.162Z,1.30
2023-03-20T20:51:47.118Z,1.25
2023-03-20T20:54:14.092Z,1.02
2023-03-20T20:56:40.870Z,1.40
2023-03-20T20:59:07.439Z,1.02
2023-03-20T21:01:33.923Z,1.30
2023-03-20T21:04:00.374Z,2.10
2023-03-20T21:06:57.882Z,2.65
2023-03-20T21:09:13.058Z,2.80
2023-03-20T21:11:39.849Z,2.20
2023-03-20T21:14:06.139Z,1.38
2023-03-20T21:16:32.512Z,1.50
2023-03-20T21:18:58.916Z,1.25
2023-03-20T21:21:25.414Z,1.40
2023-03-20T21:23:51.810Z,1.65
2023-03-20T21:26:18.642Z,1.70
2023-03-20T21:28:45.015Z,2.50
2023-03-20T21:31:24.434Z,2.35
2023-03-20T21:33:53.123Z,2.10
2023-03-20T21:36:19.954Z,3.03
2023-03-20T21:41:32.720Z,2.38
2023-03-20T21:44:01.225Z,1.30
2023-03-20T21:58:17.587Z,2.15
2023-03-20T22:03:11.555Z,1.58
2023-03-20T22:06:29.606Z,2.55
2023-03-20T22:09:30.800Z,2.88
2023-03-20T22:14:58.547Z,2.00
2023-03-20T22:20:35.441Z,1.90
2023-03-20T22:28:36.079Z,3.42
2023-03-20T22:31:28.620Z,2.40
2023-03-20T22:36:57.470Z,1.75
2023-03-20T22:44:59.240Z,1.60
2023-03-20T22:47:21.068Z,1.63
2023-03-20T22:49:47.498Z,1.50
2023-03-20T22:52:29.204Z,1.75
2023-03-20T22:55:00.560Z,1.75
2023-03-20T22:57:38.830Z,1.83
2023-03-20T23:00:10.797Z,1.70
2023-03-20T23:02:37.102Z,1.80
2023-03-20T23:05:03.661Z,1.40
2023-03-20T23:07:29.989Z,1.30
2023-03-20T23:09:56.379Z,1.45
2023-03-20T23:12:22.807Z,1.10
2023-03-20T23:14:49.094Z,1.80
2023-03-20T23:17:15.673Z,1.45
2023-03-20T23:19:49.088Z,1.60
2023-03-20T23:22:18.388Z,2.58
2023-03-20T23:24:44.735Z,1.73
2023-03-20T23:27:11.070Z,1.92
2023-03-20T23:29:37.410Z,1.80
2023-03-20T23:32:03.853Z,2.15
2023-03-20T23:34:30.222Z,1.50
2023-03-20T23:36:56.575Z,1.70
2023-03-20T23:39:22.960Z,1.20
2023-03-20T23:42:07.894Z,2.40
2023-03-20T23:44:37.556Z,1.75
2023-03-20T23:47:17.806Z,1.05
2023-03-20T23:49:46.324Z,1.40
2023-03-20T23:52:12.980Z,1.90
2023-03-20T23:54:39.273Z,1.30
2023-03-20T23:57:05.563Z,1.52
2023-03-20T23:59:31.868Z,1.50
